createdAt,value
2019-04-21T00:00:16.800Z,1014.13
2019-04-21T00:01:14.613Z,1014.12
2019-04-21T00:02:21.294Z,1014.09
2019-04-21T00:03:21.423Z,1014.08
2019-04-21T00:04:26.046Z,1014.12
2019-04-21T00:05:29.878Z,1014.07
2019-04-21T00:06:36.709Z,1014.07
2019-04-21T00:07:32.062Z,1014.04
2019-04-21T00:09:42.628Z,1014.08
2019-04-21T00:10:36.418Z,1014.01
2019-04-21T00:11:36.124Z,1014.04
2019-04-21T00:12:28.637Z,1014.06
2019-04-21T00:13:26.791Z,1013.99
2019-04-21T00:14:28.596Z,1013.99
2019-04-21T00:15:24.376Z,1014.00
2019-04-21T00:16:17.208Z,1013.98
2019-04-21T00:17:17.535Z,1013.93
2019-04-21T00:18:14.393Z,1013.93
2019-04-21T00:19:19.647Z,1013.91
2019-04-21T00:20:23.729Z,1013.89
2019-04-21T00:21:23.243Z,1013.82
2019-04-21T00:22:23.713Z,1013.83
2019-04-21T00:23:32.838Z,1013.86
2019-04-21T00:24:25.090Z,1013.82
2019-04-21T00:25:27.532Z,1013.80
2019-04-21T00:26:32.945Z,1013.79
2019-04-21T00:27:28.528Z,1013.76
2019-04-21T00:28:37.754Z,1013.77
2019-04-21T00:29:35.397Z,1013.75
2019-04-21T00:30:35.558Z,1013.74
2019-04-21T00:31:29.307Z,1013.77
2019-04-21T00:32:25.645Z,1013.71
2019-04-21T00:33:20.746Z,1013.74
2019-04-21T00:34:13.376Z,1013.73
2019-04-21T00:35:18.727Z,1013.75
2019-04-21T00:36:22.023Z,1013.76
2019-04-21T00:37:25.713Z,1013.72
2019-04-21T00:38:32.173Z,1013.72
2019-04-21T00:39:43.340Z,1013.72
2019-04-21T00:40:35.207Z,1013.72
2019-04-21T00:41:39.915Z,1013.73
2019-04-21T00:42:34.275Z,1013.75
2019-04-21T00:43:27.972Z,1013.77
2019-04-21T00:44:24.555Z,1013.77
2019-04-21T00:45:27.507Z,1013.73
2019-04-21T00:46:31.158Z,1013.73
2019-04-21T00:47:34.747Z,1013.69
2019-04-21T00:48:34.463Z,1013.65
2019-04-21T00:49:31.639Z,1013.64
2019-04-21T00:50:40.452Z,1013.61
2019-04-21T00:51:43.902Z,1013.63
2019-04-21T00:52:48.858Z,1013.61
2019-04-21T00:53:44.116Z,1013.63
2019-04-21T00:54:41.742Z,1013.66
2019-04-21T00:55:41.039Z,1013.64
2019-04-21T00:56:34.022Z,1013.58
2019-04-21T00:57:38.897Z,1013.53
2019-04-21T00:58:39.298Z,1013.52
2019-04-21T00:59:34.917Z,1013.56
2019-04-21T01:00:32.572Z,1013.53
2019-04-21T01:01:31.293Z,1013.62
2019-04-21T01:02:43.671Z,1013.57
2019-04-21T01:04:44.633Z,1013.56
2019-04-21T01:05:50.151Z,1013.52
2019-04-21T01:06:47.928Z,1013.52
2019-04-21T01:07:42.032Z,1013.53
2019-04-21T01:08:41.409Z,1013.53
2019-04-21T01:09:37.356Z,1013.51
2019-04-21T01:10:36.048Z,1013.44
2019-04-21T01:11:44.453Z,1013.44
2019-04-21T01:12:42.016Z,1013.42
2019-04-21T01:13:47.892Z,1013.43
2019-04-21T01:14:54.158Z,1013.40
2019-04-21T01:15:49.721Z,1013.39
2019-04-21T01:16:47.356Z,1013.38
2019-04-21T01:17:46.055Z,1013.36
2019-04-21T01:18:47.274Z,1013.29
2019-04-21T01:19:41.239Z,1013.29
2019-04-21T01:20:23.012Z,1013.27
2019-04-21T01:21:23.001Z,1013.29
2019-04-21T01:22:23.014Z,1013.29
2019-04-21T01:23:23.429Z,1013.28
2019-04-21T01:24:31.870Z,1013.27
2019-04-21T01:25:33.202Z,1013.25
2019-04-21T01:26:37.181Z,1013.25
2019-04-21T01:27:45.669Z,1013.22
2019-04-21T01:28:40.051Z,1013.21
2019-04-21T01:29:51.452Z,1013.21
2019-04-21T01:30:50.337Z,1013.17
2019-04-21T01:31:36.309Z,1013.18
2019-04-21T01:32:46.861Z,1013.21
2019-04-21T01:33:44.981Z,1013.17
2019-04-21T01:34:45.513Z,1013.18
2019-04-21T01:35:44.896Z,1013.18
2019-04-21T01:36:38.570Z,1013.13
2019-04-21T01:37:52.412Z,1013.11
2019-04-21T01:38:52.498Z,1013.16
2019-04-21T01:39:48.583Z,1013.14
2019-04-21T01:40:51.646Z,1013.12
2019-04-21T01:41:46.302Z,1013.10
2019-04-21T01:42:48.148Z,1013.07
2019-04-21T01:43:43.078Z,1013.05
2019-04-21T01:44:48.416Z,1013.01
2019-04-21T01:45:43.515Z,1013.01
2019-04-21T01:46:40.678Z,1012.96
2019-04-21T01:47:40.502Z,1012.99
2019-04-21T01:48:39.053Z,1012.96
2019-04-21T01:49:34.924Z,1012.94
2019-04-21T01:50:40.964Z,1012.95
2019-04-21T01:51:45.297Z,1012.93
2019-04-21T01:52:53.140Z,1012.92
2019-04-21T01:53:42.412Z,1012.96
2019-04-21T01:54:53.469Z,1012.99
2019-04-21T01:55:45.636Z,1012.97
2019-04-21T01:56:43.189Z,1012.95
2019-04-21T01:57:37.796Z,1012.93
2019-04-21T01:58:34.158Z,1012.95
2019-04-21T01:59:39.586Z,1012.92
2019-04-21T02:00:38.999Z,1012.93
2019-04-21T02:01:42.550Z,1012.91
2019-04-21T02:02:46.213Z,1012.93
2019-04-21T02:03:52.835Z,1012.93
2019-04-21T02:04:50.058Z,1012.95
2019-04-21T02:05:44.339Z,1012.94
2019-04-21T02:06:45.552Z,1012.96
2019-04-21T02:07:44.279Z,1012.96
2019-04-21T02:08:43.497Z,1012.90
2019-04-21T02:09:46.381Z,1012.96
2019-04-21T02:10:46.232Z,1012.94
2019-04-21T02:11:43.239Z,1012.93
2019-04-21T02:12:47.875Z,1012.91
2019-04-21T02:13:46.840Z,1012.90
2019-04-21T02:14:50.336Z,1012.94
2019-04-21T02:15:48.950Z,1012.91
2019-04-21T02:16:40.437Z,1012.91
2019-04-21T02:17:43.397Z,1012.90
2019-04-21T02:18:39.086Z,1012.88
2019-04-21T02:19:36.342Z,1012.91
2019-04-21T02:20:31.734Z,1012.94
2019-04-21T02:21:39.346Z,1012.97
2019-04-21T02:23:01.926Z,1012.92
2019-04-21T02:23:46.460Z,1012.96
2019-04-21T02:24:49.697Z,1012.97
2019-04-21T02:25:47.145Z,1012.90
2019-04-21T02:26:47.166Z,1012.93
2019-04-21T02:27:47.504Z,1012.89
2019-04-21T02:28:51.620Z,1012.91
2019-04-21T02:29:53.246Z,1012.88
2019-04-21T02:30:56.911Z,1012.89
2019-04-21T02:31:55.392Z,1012.89
2019-04-21T02:35:18.738Z,1012.90
2019-04-21T02:36:00.531Z,1012.87
2019-04-21T02:37:07.215Z,1012.86
2019-04-21T02:38:03.852Z,1012.89
2019-04-21T02:39:03.380Z,1012.87
2019-04-21T02:39:56.771Z,1012.87
2019-04-21T02:41:55.866Z,1012.83
2019-04-21T02:43:00.207Z,1012.85
2019-04-21T02:44:52.049Z,1012.82
2019-04-21T02:46:02.112Z,1012.83
2019-04-21T02:47:57.266Z,1012.80
2019-04-21T02:48:56.444Z,1012.82
2019-04-21T02:50:01.913Z,1012.84
2019-04-21T02:50:45.124Z,1012.72
2019-04-21T02:51:54.942Z,1012.73
2019-04-21T02:52:53.892Z,1012.73
2019-04-21T02:54:11.925Z,1012.71
2019-04-21T02:55:50.800Z,1012.72
2019-04-21T02:57:01.667Z,1012.76
2019-04-21T02:57:59.953Z,1012.70
2019-04-21T02:59:59.977Z,1012.63
2019-04-21T03:01:14.428Z,1012.60
2019-04-21T03:01:55.940Z,1012.55
2019-04-21T03:03:56.178Z,1012.50
2019-04-21T03:06:15.346Z,1012.49
2019-04-21T03:07:11.387Z,1012.49
2019-04-21T03:08:05.703Z,1012.44
2019-04-21T03:09:57.936Z,1012.41
2019-04-21T03:11:08.679Z,1012.41
2019-04-21T03:13:07.674Z,1012.43
2019-04-21T03:14:05.621Z,1012.43
2019-04-21T03:15:04.259Z,1012.41
2019-04-21T03:16:11.783Z,1012.40
2019-04-21T03:17:10.080Z,1012.45
2019-04-21T03:18:08.220Z,1012.48
2019-04-21T03:20:04.452Z,1012.44
2019-04-21T03:22:07.172Z,1012.39
2019-04-21T03:23:12.697Z,1012.40
2019-04-21T03:24:03.936Z,1012.41
2019-04-21T03:26:10.226Z,1012.39
2019-04-21T03:29:03.601Z,1012.36
2019-04-21T03:36:37.974Z,1012.31
2019-04-21T03:38:05.691Z,1012.30
2019-04-21T03:39:04.954Z,1012.33
2019-04-21T03:39:59.877Z,1012.31
2019-04-21T03:41:04.023Z,1012.28
2019-04-21T03:42:07.395Z,1012.28
2019-04-21T03:43:04.549Z,1012.30
2019-04-21T03:44:06.603Z,1012.27
2019-04-21T03:44:59.071Z,1012.29
2019-04-21T03:46:01.282Z,1012.28
2019-04-21T03:47:11.297Z,1012.26
2019-04-21T03:48:01.164Z,1012.28
2019-04-21T03:51:09.459Z,1012.24
2019-04-21T03:52:15.251Z,1012.25
2019-04-21T03:53:02.881Z,1012.21
2019-04-21T03:54:00.670Z,1012.23
2019-04-21T03:55:28.160Z,1012.22
2019-04-21T03:57:17.828Z,1012.20
2019-04-21T03:58:16.934Z,1012.19
2019-04-21T04:00:10.945Z,1012.18
2019-04-21T04:03:35.025Z,1012.19
2019-04-21T04:05:05.726Z,1012.17
2019-04-21T04:06:13.351Z,1012.16
2019-04-21T04:07:10.998Z,1012.16
2019-04-21T04:08:18.767Z,1012.16
2019-04-21T04:09:09.685Z,1012.18
2019-04-21T04:10:08.434Z,1012.16
2019-04-21T04:11:14.343Z,1012.15
2019-04-21T04:11:54.793Z,1012.18
2019-04-21T04:13:04.999Z,1012.17
2019-04-21T04:14:12.935Z,1012.15
2019-04-21T04:15:03.065Z,1012.17
2019-04-21T04:17:11.662Z,1012.12
2019-04-21T04:18:57.684Z,1012.17
2019-04-21T04:20:22.469Z,1012.14
2019-04-21T04:21:15.073Z,1012.12
2019-04-21T04:22:09.409Z,1012.13
2019-04-21T04:23:02.738Z,1012.15
2019-04-21T04:25:05.168Z,1012.12
2019-04-21T04:27:11.152Z,1012.08
2019-04-21T04:30:10.368Z,1012.06
2019-04-21T04:31:05.117Z,1012.09
2019-04-21T04:32:00.816Z,1012.05
2019-04-21T04:32:56.667Z,1012.08
2019-04-21T04:34:09.987Z,1012.07
2019-04-21T04:35:03.334Z,1012.08
2019-04-21T04:37:07.442Z,1012.07
2019-04-21T04:38:07.139Z,1012.06
2019-04-21T04:39:21.333Z,1012.07
2019-04-21T04:41:06.219Z,1012.09
2019-04-21T04:42:27.061Z,1012.07
2019-04-21T04:43:09.106Z,1012.09
2019-04-21T04:44:17.310Z,1012.10
2019-04-21T04:46:02.635Z,1012.08
2019-04-21T04:49:11.476Z,1012.06
2019-04-21T04:51:16.290Z,1012.09
2019-04-21T04:52:19.574Z,1012.07
2019-04-21T04:52:56.708Z,1012.07
2019-04-21T04:53:50.770Z,1012.06
2019-04-21T04:56:08.348Z,1012.07
2019-04-21T04:57:08.259Z,1012.04
2019-04-21T05:00:14.901Z,1012.07
2019-04-21T05:01:26.781Z,1012.09
2019-04-21T05:02:15.216Z,1012.11
2019-04-21T05:03:01.025Z,1012.13
2019-04-21T05:04:06.260Z,1012.12
2019-04-21T05:07:17.583Z,1012.09
2019-04-21T05:09:23.518Z,1012.05
2019-04-21T05:10:05.897Z,1012.06
2019-04-21T05:11:23.405Z,1012.07
2019-04-21T05:12:00.124Z,1012.09
2019-04-21T05:13:08.224Z,1012.10
2019-04-21T05:14:23.029Z,1012.10
2019-04-21T05:15:08.495Z,1012.09
2019-04-21T05:16:16.299Z,1012.10
2019-04-21T05:17:15.768Z,1012.06
2019-04-21T05:18:15.170Z,1012.08
2019-04-21T05:19:21.259Z,1012.02
2019-04-21T05:20:11.192Z,1012.01
2019-04-21T05:21:23.280Z,1012.03
2019-04-21T05:22:11.017Z,1012.03
2019-04-21T05:23:07.359Z,1012.06
2019-04-21T05:24:10.910Z,1012.03
2019-04-21T05:25:02.445Z,1012.05
2019-04-21T05:25:54.319Z,1012.07
2019-04-21T05:26:59.546Z,1012.03
2019-04-21T05:27:57.821Z,1012.04
2019-04-21T05:28:52.562Z,1011.99
2019-04-21T05:30:07.138Z,1011.97
2019-04-21T05:31:06.261Z,1012.02
2019-04-21T05:32:00.506Z,1011.99
2019-04-21T05:33:07.119Z,1011.98
2019-04-21T05:34:07.483Z,1012.00
2019-04-21T05:35:04.211Z,1011.96
2019-04-21T05:36:04.745Z,1011.96
2019-04-21T05:37:05.444Z,1011.95
2019-04-21T05:38:01.396Z,1011.97
2019-04-21T05:38:58.393Z,1011.96
2019-04-21T05:39:57.233Z,1011.98
2019-04-21T05:40:59.095Z,1011.96
2019-04-21T05:41:50.860Z,1011.98
2019-04-21T05:43:00.185Z,1011.87
2019-04-21T05:44:06.613Z,1011.91
2019-04-21T05:45:12.715Z,1011.90
2019-04-21T05:46:21.648Z,1011.90
2019-04-21T05:47:18.818Z,1011.95
2019-04-21T05:48:11.637Z,1011.91
2019-04-21T05:49:05.003Z,1011.92
2019-04-21T05:50:00.929Z,1011.92
2019-04-21T05:50:59.181Z,1011.92
2019-04-21T05:51:58.299Z,1011.95
2019-04-21T05:52:53.528Z,1011.94
2019-04-21T05:54:09.208Z,1011.92
2019-04-21T05:55:05.291Z,1011.96
2019-04-21T05:56:03.626Z,1011.96
2019-04-21T05:56:59.778Z,1011.93
2019-04-21T05:58:02.546Z,1011.94
2019-04-21T05:59:03.415Z,1011.94
2019-04-21T06:00:01.260Z,1011.95
2019-04-21T06:01:15.343Z,1011.91
2019-04-21T06:02:15.106Z,1011.93
2019-04-21T06:03:05.382Z,1011.93
2019-04-21T06:04:03.956Z,1011.91
2019-04-21T06:05:17.891Z,1011.87
2019-04-21T06:06:10.091Z,1011.91
2019-04-21T06:07:06.032Z,1011.88
2019-04-21T06:08:00.521Z,1011.89
2019-04-21T06:09:05.311Z,1011.85
2019-04-21T06:10:20.059Z,1011.90
2019-04-21T06:11:23.877Z,1011.92
2019-04-21T06:12:03.832Z,1011.88
2019-04-21T06:13:06.057Z,1011.89
2019-04-21T06:14:21.704Z,1011.87
2019-04-21T06:15:03.824Z,1011.86
2019-04-21T06:16:03.576Z,1011.89
2019-04-21T06:17:01.558Z,1011.85
2019-04-21T06:18:07.862Z,1011.86
2019-04-21T06:19:23.207Z,1011.85
2019-04-21T06:20:02.881Z,1011.89
2019-04-21T06:21:07.217Z,1011.90
2019-04-21T06:22:03.559Z,1011.93
2019-04-21T06:23:02.995Z,1011.89
2019-04-21T06:24:06.786Z,1011.87
2019-04-21T06:25:31.710Z,1011.90
2019-04-21T06:26:18.078Z,1011.89
2019-04-21T06:27:22.699Z,1011.88
2019-04-21T06:28:03.578Z,1011.89
2019-04-21T06:29:04.105Z,1011.89
2019-04-21T06:30:00.218Z,1011.92
2019-04-21T06:31:21.591Z,1011.82
2019-04-21T06:32:26.714Z,1011.76
2019-04-21T06:32:59.489Z,1011.79
2019-04-21T06:34:06.715Z,1011.80
2019-04-21T06:37:07.817Z,1011.75
2019-04-21T06:38:03.682Z,1011.76
2019-04-21T06:39:17.908Z,1011.80
2019-04-21T06:40:15.266Z,1011.80
2019-04-21T06:41:06.221Z,1011.81
2019-04-21T06:42:05.286Z,1011.78
2019-04-21T06:43:11.361Z,1011.74
2019-04-21T06:44:20.338Z,1011.77
2019-04-21T06:45:10.422Z,1011.74
2019-04-21T06:46:04.462Z,1011.80
2019-04-21T06:47:09.445Z,1011.77
2019-04-21T06:48:09.041Z,1011.77
2019-04-21T06:49:02.829Z,1011.77
2019-04-21T06:50:03.187Z,1011.79
2019-04-21T06:51:12.432Z,1011.80
2019-04-21T06:52:07.552Z,1011.81
2019-04-21T06:53:15.439Z,1011.76
2019-04-21T06:54:04.423Z,1011.74
2019-04-21T06:56:05.031Z,1011.76
2019-04-21T06:56:58.598Z,1011.70
2019-04-21T06:58:02.204Z,1011.76
2019-04-21T06:59:01.299Z,1011.73
2019-04-21T07:00:03.921Z,1011.69
2019-04-21T07:01:02.471Z,1011.75
2019-04-21T07:03:11.400Z,1011.72
2019-04-21T07:04:11.745Z,1011.74
2019-04-21T07:05:08.987Z,1011.76
2019-04-21T07:06:10.470Z,1011.75
2019-04-21T07:10:26.067Z,1011.72
2019-04-21T07:11:08.480Z,1011.74
2019-04-21T07:12:05.834Z,1011.73
2019-04-21T07:13:11.400Z,1011.81
2019-04-21T07:15:11.360Z,1011.77
2019-04-21T07:16:17.572Z,1011.77
2019-04-21T07:17:17.835Z,1011.74
2019-04-21T07:18:12.429Z,1011.71
2019-04-21T07:20:13.667Z,1011.70
2019-04-21T07:21:17.194Z,1011.67
2019-04-21T07:22:14.583Z,1011.67
2019-04-21T07:23:16.235Z,1011.68
2019-04-21T07:24:14.168Z,1011.64
2019-04-21T07:25:13.710Z,1011.67
2019-04-21T07:26:10.556Z,1011.64
2019-04-21T07:27:18.967Z,1011.68
2019-04-21T07:28:10.829Z,1011.65
2019-04-21T07:29:14.207Z,1011.68
2019-04-21T07:30:16.057Z,1011.69
2019-04-21T07:31:21.849Z,1011.67
2019-04-21T07:32:12.127Z,1011.66
2019-04-21T07:33:37.392Z,1011.61
2019-04-21T07:34:23.939Z,1011.60
2019-04-21T07:35:17.926Z,1011.61
2019-04-21T07:36:17.447Z,1011.64
2019-04-21T07:37:05.994Z,1011.62
2019-04-21T07:38:11.245Z,1011.65
2019-04-21T07:39:07.217Z,1011.66
2019-04-21T07:40:07.795Z,1011.67
2019-04-21T07:41:08.049Z,1011.61
2019-04-21T07:42:06.508Z,1011.55
2019-04-21T07:43:06.691Z,1011.60
2019-04-21T07:44:04.648Z,1011.63
2019-04-21T07:45:04.605Z,1011.60
2019-04-21T07:46:04.004Z,1011.54
2019-04-21T07:47:03.556Z,1011.56
2019-04-21T07:48:08.243Z,1011.51
2019-04-21T07:50:07.457Z,1011.51
2019-04-21T07:51:14.015Z,1011.51
2019-04-21T07:52:11.358Z,1011.49
2019-04-21T07:53:19.594Z,1011.47
2019-04-21T07:54:17.857Z,1011.46
2019-04-21T07:55:20.026Z,1011.48
2019-04-21T07:55:54.046Z,1011.50
2019-04-21T07:57:04.854Z,1011.48
2019-04-21T07:58:07.316Z,1011.50
2019-04-21T07:59:09.995Z,1011.49
2019-04-21T08:00:29.534Z,1011.47
2019-04-21T08:01:14.862Z,1011.47
2019-04-21T08:02:12.094Z,1011.48
2019-04-21T08:03:12.879Z,1011.47
2019-04-21T08:04:33.169Z,1011.47
2019-04-21T08:05:15.987Z,1011.47
2019-04-21T08:06:14.969Z,1011.49
2019-04-21T08:07:05.071Z,1011.47
2019-04-21T08:08:08.115Z,1011.52
2019-04-21T08:09:08.936Z,1011.46
2019-04-21T08:10:07.833Z,1011.43
2019-04-21T08:11:10.997Z,1011.43
2019-04-21T08:12:03.778Z,1011.47
2019-04-21T08:13:14.789Z,1011.46
2019-04-21T08:14:08.380Z,1011.42
2019-04-21T08:15:15.884Z,1011.44
2019-04-21T08:16:10.595Z,1011.38
2019-04-21T08:17:10.980Z,1011.40
2019-04-21T08:18:11.754Z,1011.36
2019-04-21T08:19:12.698Z,1011.34
2019-04-21T08:20:07.422Z,1011.36
2019-04-21T08:21:05.775Z,1011.32
2019-04-21T08:22:12.510Z,1011.35
2019-04-21T08:23:13.525Z,1011.35
2019-04-21T08:24:10.518Z,1011.33
2019-04-21T08:25:08.989Z,1011.33
2019-04-21T08:26:12.176Z,1011.33
2019-04-21T08:27:11.997Z,1011.33
2019-04-21T08:28:07.303Z,1011.30
2019-04-21T08:29:20.699Z,1011.32
2019-04-21T08:30:14.330Z,1011.34
2019-04-21T08:31:10.219Z,1011.33
2019-04-21T08:32:18.477Z,1011.36
2019-04-21T08:33:18.785Z,1011.31
2019-04-21T08:34:17.810Z,1011.32
2019-04-21T08:35:49.458Z,1011.35
2019-04-21T08:36:17.695Z,1011.29
2019-04-21T08:37:11.746Z,1011.25
2019-04-21T08:38:08.531Z,1011.28
2019-04-21T08:39:08.753Z,1011.28
2019-04-21T08:40:17.653Z,1011.29
2019-04-21T08:41:08.052Z,1011.25
2019-04-21T08:42:14.800Z,1011.27
2019-04-21T08:43:08.807Z,1011.22
2019-04-21T08:44:10.657Z,1011.20
2019-04-21T08:45:10.734Z,1011.29
2019-04-21T08:46:08.196Z,1011.28
2019-04-21T08:47:12.973Z,1011.23
2019-04-21T08:48:10.227Z,1011.22
2019-04-21T08:49:07.955Z,1011.24
2019-04-21T08:50:09.643Z,1011.23
2019-04-21T08:51:24.502Z,1011.23
2019-04-21T08:52:13.757Z,1011.23
2019-04-21T08:53:07.847Z,1011.21
2019-04-21T08:54:09.478Z,1011.21
2019-04-21T08:55:10.931Z,1011.19
2019-04-21T08:56:12.302Z,1011.14
2019-04-21T08:57:10.200Z,1011.19
2019-04-21T08:58:15.224Z,1011.20
2019-04-21T08:59:15.146Z,1011.11
2019-04-21T09:00:18.643Z,1011.15
2019-04-21T09:01:14.104Z,1011.13
2019-04-21T09:02:06.318Z,1011.10
2019-04-21T09:03:06.690Z,1011.09
2019-04-21T09:04:11.634Z,1011.12
2019-04-21T09:05:04.846Z,1011.07
2019-04-21T09:06:17.343Z,1011.10
2019-04-21T09:07:29.296Z,1011.09
2019-04-21T09:08:20.240Z,1011.06
2019-04-21T09:09:11.888Z,1011.03
2019-04-21T09:10:05.195Z,1011.01
2019-04-21T09:11:10.113Z,1010.98
2019-04-21T09:12:04.302Z,1011.01
2019-04-21T09:13:07.437Z,1011.00
2019-04-21T09:14:07.359Z,1010.97
2019-04-21T09:15:09.914Z,1010.95
2019-04-21T09:16:06.674Z,1010.95
2019-04-21T09:17:00.382Z,1010.93
2019-04-21T09:18:04.918Z,1010.93
2019-04-21T09:18:59.517Z,1010.89
2019-04-21T09:20:13.807Z,1010.87
2019-04-21T09:21:07.257Z,1010.89
2019-04-21T09:22:05.843Z,1010.87
2019-04-21T09:23:09.365Z,1010.84
2019-04-21T09:24:13.060Z,1010.84
2019-04-21T09:25:03.311Z,1010.83
2019-04-21T09:26:06.027Z,1010.82
2019-04-21T09:27:03.741Z,1010.81
2019-04-21T09:28:04.043Z,1010.83
2019-04-21T09:29:03.456Z,1010.79
2019-04-21T09:29:54.235Z,1010.77
2019-04-21T09:30:53.448Z,1010.78
2019-04-21T09:31:50.297Z,1010.74
2019-04-21T09:32:53.117Z,1010.69
2019-04-21T09:33:50.774Z,1010.69
2019-04-21T09:34:50.695Z,1010.71
2019-04-21T09:35:55.537Z,1010.63
2019-04-21T09:36:52.100Z,1010.61
2019-04-21T09:37:56.138Z,1010.61
2019-04-21T09:38:56.097Z,1010.58
2019-04-21T09:39:51.871Z,1010.54
2019-04-21T09:40:51.316Z,1010.58
2019-04-21T09:41:51.212Z,1010.55
2019-04-21T09:42:56.945Z,1010.57
2019-04-21T09:43:52.207Z,1010.49
2019-04-21T09:44:52.277Z,1010.58
2019-04-21T09:45:49.521Z,1010.55
2019-04-21T09:46:54.078Z,1010.57
2019-04-21T09:47:57.208Z,1010.58
2019-04-21T09:48:55.431Z,1010.48
2019-04-21T09:49:49.329Z,1010.54
2019-04-21T09:50:48.082Z,1010.45
2019-04-21T09:51:48.389Z,1010.47
2019-04-21T09:52:54.533Z,1010.47
2019-04-21T09:53:56.595Z,1010.38
2019-04-21T09:54:56.429Z,1010.43
2019-04-21T09:55:54.803Z,1010.33
2019-04-21T09:56:57.140Z,1010.42
2019-04-21T09:57:52.177Z,1010.40
2019-04-21T09:58:51.424Z,1010.38
2019-04-21T09:59:57.080Z,1010.35
2019-04-21T10:01:01.468Z,1010.36
2019-04-21T10:02:00.206Z,1010.37
2019-04-21T10:02:56.775Z,1010.35
2019-04-21T10:03:52.196Z,1010.32
2019-04-21T10:04:48.277Z,1010.33
2019-04-21T10:05:47.882Z,1010.31
2019-04-21T10:06:47.877Z,1010.30
2019-04-21T10:07:48.923Z,1010.24
2019-04-21T10:08:50.439Z,1010.29
2019-04-21T10:09:47.966Z,1010.23
2019-04-21T10:10:49.078Z,1010.25
2019-04-21T10:11:48.173Z,1010.24
2019-04-21T10:12:47.861Z,1010.23
2019-04-21T10:13:48.716Z,1010.25
2019-04-21T10:14:47.783Z,1010.18
2019-04-21T10:15:48.546Z,1010.14
2019-04-21T10:16:47.757Z,1010.08
2019-04-21T10:17:47.774Z,1010.15
2019-04-21T10:18:48.166Z,1010.10
2019-04-21T10:19:48.508Z,1010.11
2019-04-21T10:20:49.092Z,1010.08
2019-04-21T10:21:47.935Z,1010.04
2019-04-21T10:22:48.915Z,1010.06
2019-04-21T10:23:47.972Z,1010.02
2019-04-21T10:24:48.803Z,1010.05
2019-04-21T10:25:48.439Z,1010.05
2019-04-21T10:26:47.657Z,1010.00
2019-04-21T10:27:47.647Z,1009.99
2019-04-21T10:28:48.950Z,1009.97
2019-04-21T10:29:49.133Z,1009.95
2019-04-21T10:30:49.021Z,1009.99
2019-04-21T10:31:48.142Z,1009.89
2019-04-21T10:32:48.410Z,1009.90
2019-04-21T10:33:48.434Z,1009.84
2019-04-21T10:34:47.595Z,1009.84
2019-04-21T10:35:48.833Z,1009.81
2019-04-21T10:36:47.549Z,1009.83
2019-04-21T10:38:01.431Z,1009.91
2019-04-21T10:38:51.331Z,1009.88
2019-04-21T10:39:47.608Z,1009.87
2019-04-21T10:40:47.632Z,1009.82
2019-04-21T10:41:47.761Z,1009.79
2019-04-21T10:42:48.118Z,1009.79
2019-04-21T10:43:47.464Z,1009.83
2019-04-21T10:44:47.444Z,1009.79
2019-04-21T10:45:48.699Z,1009.78
2019-04-21T10:46:50.319Z,1009.87
2019-04-21T10:47:47.456Z,1009.83
2019-04-21T10:48:48.474Z,1009.78
2019-04-21T10:49:48.573Z,1009.74
2019-04-21T10:50:47.392Z,1009.70
2019-04-21T10:51:48.797Z,1009.73
2019-04-21T10:52:47.399Z,1009.67
2019-04-21T10:53:50.869Z,1009.71
2019-04-21T10:55:06.917Z,1009.65
2019-04-21T10:56:00.397Z,1009.66
2019-04-21T10:56:47.879Z,1009.62
2019-04-21T10:57:48.363Z,1009.54
2019-04-21T10:58:47.319Z,1009.59
2019-04-21T10:59:50.746Z,1009.56
2019-04-21T11:00:48.445Z,1009.57
2019-04-21T11:01:47.271Z,1009.57
2019-04-21T11:02:48.707Z,1009.53
2019-04-21T11:03:47.261Z,1009.54
2019-04-21T11:04:47.240Z,1009.51
2019-04-21T11:05:48.310Z,1009.53
2019-04-21T11:06:48.219Z,1009.57
2019-04-21T11:08:01.258Z,1009.58
2019-04-21T11:08:55.576Z,1009.51
2019-04-21T11:09:47.171Z,1009.47
2019-04-21T11:10:47.809Z,1009.47
2019-04-21T11:11:49.872Z,1009.48
2019-04-21T11:12:47.841Z,1009.51
2019-04-21T11:13:48.368Z,1009.48
2019-04-21T11:14:47.242Z,1009.51
2019-04-21T11:15:47.510Z,1009.48
2019-04-21T11:16:49.027Z,1009.48
2019-04-21T11:17:48.791Z,1009.46
2019-04-21T11:18:48.258Z,1009.42
2019-04-21T11:19:47.074Z,1009.35
2019-04-21T11:20:47.059Z,1009.37
2019-04-21T11:21:47.129Z,1009.36
2019-04-21T11:22:47.356Z,1009.31
2019-04-21T11:23:48.014Z,1009.32
2019-04-21T11:24:47.114Z,1009.32
2019-04-21T11:25:48.202Z,1009.29
2019-04-21T11:26:47.727Z,1009.29
2019-04-21T11:27:47.144Z,1009.25
2019-04-21T11:28:47.294Z,1009.26
2019-04-21T11:29:47.475Z,1009.30
2019-04-21T11:30:46.946Z,1009.30
2019-04-21T11:31:47.291Z,1009.27
2019-04-21T11:32:49.090Z,1009.27
2019-04-21T11:33:47.194Z,1009.25
2019-04-21T11:34:47.236Z,1009.18
2019-04-21T11:35:46.891Z,1009.17
2019-04-21T11:36:47.828Z,1009.16
2019-04-21T11:37:48.261Z,1009.10
2019-04-21T11:39:02.365Z,1009.17
2019-04-21T11:39:55.438Z,1009.14
2019-04-21T11:40:47.542Z,1009.17
2019-04-21T11:41:47.833Z,1009.14
2019-04-21T11:42:48.038Z,1009.17
2019-04-21T11:43:46.831Z,1009.16
2019-04-21T11:44:47.151Z,1009.15
2019-04-21T11:45:46.790Z,1009.12
2019-04-21T11:46:46.770Z,1009.13
2019-04-21T11:47:48.171Z,1009.10
2019-04-21T11:48:48.256Z,1009.18
2019-04-21T11:49:47.216Z,1009.11
2019-04-21T11:50:46.825Z,1009.15
2019-04-21T11:51:47.015Z,1009.13
2019-04-21T11:52:47.324Z,1009.15
2019-04-21T11:53:46.704Z,1009.11
2019-04-21T11:54:46.807Z,1009.12
2019-04-21T11:55:49.919Z,1009.08
2019-04-21T11:56:46.666Z,1009.05
2019-04-21T11:57:49.807Z,1009.04
2019-04-21T11:58:47.784Z,1009.08
2019-04-21T11:59:47.926Z,1009.01
2019-04-21T12:00:47.479Z,1009.04
2019-04-21T12:01:47.615Z,1009.04
2019-04-21T12:02:47.746Z,1009.01
2019-04-21T12:03:47.535Z,1008.96
2019-04-21T12:04:47.557Z,1009.03
2019-04-21T12:05:47.716Z,1009.00
2019-04-21T12:06:48.834Z,1009.01
2019-04-21T12:07:47.172Z,1008.99
2019-04-21T12:08:49.946Z,1008.97
2019-04-21T12:09:47.799Z,1008.96
2019-04-21T12:10:47.270Z,1008.91
2019-04-21T12:11:47.428Z,1008.93
2019-04-21T12:12:47.534Z,1008.91
2019-04-21T12:13:47.819Z,1008.89
2019-04-21T12:14:46.485Z,1008.92
2019-04-21T12:15:47.146Z,1008.91
2019-04-21T12:16:46.747Z,1008.89
2019-04-21T12:17:47.834Z,1008.89
2019-04-21T12:18:47.187Z,1008.87
2019-04-21T12:19:46.543Z,1008.85
2019-04-21T12:20:47.330Z,1008.88
2019-04-21T12:21:57.598Z,1008.87
2019-04-21T12:22:47.428Z,1008.83
2019-04-21T12:23:46.368Z,1008.81
2019-04-21T12:24:47.077Z,1008.80
2019-04-21T12:25:47.338Z,1008.81
2019-04-21T12:26:46.437Z,1008.77
2019-04-21T12:27:47.772Z,1008.78
2019-04-21T12:28:46.320Z,1008.78
2019-04-21T12:29:46.322Z,1008.70
2019-04-21T12:30:47.375Z,1008.66
2019-04-21T12:31:47.556Z,1008.66
2019-04-21T12:32:46.351Z,1008.64
2019-04-21T12:33:46.261Z,1008.67
2019-04-21T12:34:48.894Z,1008.66
2019-04-21T12:35:46.270Z,1008.66
2019-04-21T12:36:46.500Z,1008.59
2019-04-21T12:37:46.879Z,1008.63
2019-04-21T12:38:50.907Z,1008.60
2019-04-21T12:39:46.206Z,1008.50
2019-04-21T12:40:46.539Z,1008.47
2019-04-21T12:41:46.680Z,1008.48
2019-04-21T12:42:46.167Z,1008.50
2019-04-21T12:43:46.585Z,1008.36
2019-04-21T12:44:47.444Z,1008.41
2019-04-21T12:45:46.161Z,1008.37
2019-04-21T12:46:46.128Z,1008.37
2019-04-21T12:47:49.912Z,1008.38
2019-04-21T12:48:46.237Z,1008.32
2019-04-21T12:49:46.099Z,1008.30
2019-04-21T12:50:46.110Z,1008.23
2019-04-21T12:51:46.194Z,1008.18
2019-04-21T12:52:47.351Z,1008.18
2019-04-21T12:53:46.057Z,1008.24
2019-04-21T12:54:46.047Z,1008.25
2019-04-21T12:55:46.702Z,1008.30
2019-04-21T12:56:47.542Z,1008.19
2019-04-21T12:57:46.007Z,1008.25
2019-04-21T12:58:47.110Z,1008.17
2019-04-21T12:59:46.710Z,1008.15
2019-04-21T13:00:47.146Z,1008.10
2019-04-21T13:01:45.958Z,1008.13
2019-04-21T13:02:45.946Z,1008.11
2019-04-21T13:03:45.992Z,1008.06
2019-04-21T13:04:46.209Z,1008.02
2019-04-21T13:05:45.945Z,1008.08